sensor_id;sensor_type;location;lat;lon;timestamp;pressure;altitude;pressure_sealevel;temperature;humidity
61757;BME280;57225;61.460;24.060;2023-07-13T00:00:10;99422.03;;;14.15;94.85
61757;BME280;57225;61.460;24.060;2023-07-13T00:02:54;99425.16;;;14.17;94.61
61757;BME280;57225;61.460;24.060;2023-07-13T00:05:40;99427.63;;;14.15;93.63
61757;BME280;57225;61.460;24.060;2023-07-13T00:08:25;99428.69;;;14.04;96.68
61757;BME280;57225;61.460;24.060;2023-07-13T00:11:09;99413.34;;;13.96;96.66
61757;BME280;57225;61.460;24.060;2023-07-13T00:13:54;99418.38;;;14.01;97.17
61757;BME280;57225;61.460;24.060;2023-07-13T00:16:41;99415.06;;;13.78;100.00
61757;BME280;57225;61.460;24.060;2023-07-13T00:19:27;99400.47;;;13.54;100.00
61757;BME280;57225;61.460;24.060;2023-07-13T00:22:12;99415.53;;;13.60;100.00
61757;BME280;57225;61.460;24.060;2023-07-13T00:25:24;99408.88;;;13.54;100.00
61757;BME280;57225;61.460;24.060;2023-07-13T00:28:12;99407.84;;;13.48;100.00
61757;BME280;57225;61.460;24.060;2023-07-13T00:30:56;99396.06;;;13.40;100.00
61757;BME280;57225;61.460;24.060;2023-07-13T00:33:41;99399.13;;;13.46;100.00
61757;BME280;57225;61.460;24.060;2023-07-13T00:36:26;99400.25;;;13.48;100.00
61757;BME280;57225;61.460;24.060;2023-07-13T00:39:10;99399.88;;;13.62;99.66
61757;BME280;57225;61.460;24.060;2023-07-13T00:41:54;99399.69;;;13.53;100.00
61757;BME280;57225;61.460;24.060;2023-07-13T00:44:39;99405.22;;;13.57;100.00
61757;BME280;57225;61.460;24.060;2023-07-13T00:47:23;99394.00;;;13.57;100.00
61757;BME280;57225;61.460;24.060;2023-07-13T00:50:12;99405.22;;;13.57;100.00
61757;BME280;57225;61.460;24.060;2023-07-13T00:53:14;99406.88;;;13.54;100.00
61757;BME280;57225;61.460;24.060;2023-07-13T00:56:09;99404.53;;;13.53;100.00
61757;BME280;57225;61.460;24.060;2023-07-13T00:58:54;99393.09;;;13.31;100.00
61757;BME280;57225;61.460;24.060;2023-07-13T01:01:39;99394.38;;;13.10;100.00
61757;BME280;57225;61.460;24.060;2023-07-13T01:04:25;99399.31;;;13.22;100.00
61757;BME280;57225;61.460;24.060;2023-07-13T01:07:10;99404.56;;;13.20;100.00
61757;BME280;57225;61.460;24.060;2023-07-13T01:09:56;99395.03;;;13.18;100.00
61757;BME280;57225;61.460;24.060;2023-07-13T01:12:40;99400.72;;;13.31;100.00
61757;BME280;57225;61.460;24.060;2023-07-13T01:15:37;99397.38;;;13.36;100.00
61757;BME280;57225;61.460;24.060;2023-07-13T01:18:25;99388.19;;;13.35;100.00
61757;BME280;57225;61.460;24.060;2023-07-13T01:21:10;99377.16;;;13.28;100.00
61757;BME280;57225;61.460;24.060;2023-07-13T01:23:55;99371.94;;;13.30;100.00
61757;BME280;57225;61.460;24.060;2023-07-13T01:26:39;99368.53;;;13.22;100.00
61757;BME280;57225;61.460;24.060;2023-07-13T01:29:24;99367.56;;;13.29;100.00
61757;BME280;57225;61.460;24.060;2023-07-13T01:32:21;99370.97;;;13.37;100.00
61757;BME280;57225;61.460;24.060;2023-07-13T01:35:08;99358.53;;;13.38;100.00
61757;BME280;57225;61.460;24.060;2023-07-13T01:37:53;99359.81;;;13.49;100.00
61757;BME280;57225;61.460;24.060;2023-07-13T01:40:38;99360.13;;;13.67;100.00
61757;BME280;57225;61.460;24.060;2023-07-13T01:43:22;99353.53;;;13.74;100.00
61757;BME280;57225;61.460;24.060;2023-07-13T01:46:07;99355.78;;;13.79;100.00
61757;BME280;57225;61.460;24.060;2023-07-13T01:48:51;99365.13;;;13.89;100.00
61757;BME280;57225;61.460;24.060;2023-07-13T01:51:36;99367.50;;;13.90;100.00
61757;BME280;57225;61.460;24.060;2023-07-13T01:54:20;99364.22;;;13.92;100.00
61757;BME280;57225;61.460;24.060;2023-07-13T01:57:05;99357.50;;;13.89;100.00
61757;BME280;57225;61.460;24.060;2023-07-13T01:59:49;99363.91;;;13.90;100.00
61757;BME280;57225;61.460;24.060;2023-07-13T02:02:34;99355.38;;;13.93;100.00
61757;BME280;57225;61.460;24.060;2023-07-13T02:05:19;99351.75;;;13.80;100.00
61757;BME280;57225;61.460;24.060;2023-07-13T02:08:04;99346.16;;;13.80;100.00
61757;BME280;57225;61.460;24.060;2023-07-13T02:10:48;99361.88;;;13.90;100.00
61757;BME280;57225;61.460;24.060;2023-07-13T02:13:33;99354.22;;;13.78;100.00
61757;BME280;57225;61.460;24.060;2023-07-13T02:16:18;99351.66;;;13.84;100.00
61757;BME280;57225;61.460;24.060;2023-07-13T02:19:03;99354.16;;;13.94;100.00
61757;BME280;57225;61.460;24.060;2023-07-13T02:21:48;99345.19;;;13.99;100.00
61757;BME280;57225;61.460;24.060;2023-07-13T02:24:32;99336.78;;;13.99;100.00
61757;BME280;57225;61.460;24.060;2023-07-13T02:27:17;99342.53;;;14.08;100.00
61757;BME280;57225;61.460;24.060;2023-07-13T02:30:02;99326.28;;;14.03;100.00
61757;BME280;57225;61.460;24.060;2023-07-13T02:32:47;99327.63;;;14.12;100.00
61757;BME280;57225;61.460;24.060;2023-07-13T02:35:32;99316.41;;;14.12;100.00
61757;BME280;57225;61.460;24.060;2023-07-13T02:38:16;99347.25;;;14.24;100.00
61757;BME280;57225;61.460;24.060;2023-07-13T02:41:01;99325.72;;;14.21;100.00
61757;BME280;57225;61.460;24.060;2023-07-13T02:43:46;99349.41;;;14.33;100.00
61757;BME280;57225;61.460;24.060;2023-07-13T02:46:31;99337.84;;;14.31;100.00
61757;BME280;57225;61.460;24.060;2023-07-13T02:49:16;99332.91;;;14.35;100.00
61757;BME280;57225;61.460;24.060;2023-07-13T02:52:01;99323.63;;;14.38;100.00
61757;BME280;57225;61.460;24.060;2023-07-13T02:54:46;99327.44;;;14.44;100.00
61757;BME280;57225;61.460;24.060;2023-07-13T02:57:30;99338.56;;;14.47;100.00
61757;BME280;57225;61.460;24.060;2023-07-13T03:00:17;99300.72;;;14.27;100.00
61757;BME280;57225;61.460;24.060;2023-07-13T03:03:02;99326.34;;;14.54;100.00
61757;BME280;57225;61.460;24.060;2023-07-13T03:05:46;99325.28;;;14.61;100.00
61757;BME280;57225;61.460;24.060;2023-07-13T03:08:34;99304.91;;;14.47;100.00
61757;BME280;57225;61.460;24.060;2023-07-13T03:11:20;99328.09;;;14.73;100.00
61757;BME280;57225;61.460;24.060;2023-07-13T03:14:04;99330.22;;;14.82;100.00
61757;BME280;57225;61.460;24.060;2023-07-13T03:16:49;99330.00;;;14.89;100.00
61757;BME280;57225;61.460;24.060;2023-07-13T03:19:34;99323.69;;;14.98;100.00
61757;BME280;57225;61.460;24.060;2023-07-13T03:22:18;99318.41;;;15.00;100.00
61757;BME280;57225;61.460;24.060;2023-07-13T03:25:21;99320.13;;;15.19;99.93
61757;BME280;57225;61.460;24.060;2023-07-13T03:28:05;99326.19;;;15.30;99.74
61757;BME280;57225;61.460;24.060;2023-07-13T03:30:59;99319.41;;;15.40;99.67
61757;BME280;57225;61.460;24.060;2023-07-13T03:33:43;99328.59;;;15.53;99.42
61757;BME280;57225;61.460;24.060;2023-07-13T03:36:29;99314.50;;;15.66;98.39
61757;BME280;57225;61.460;24.060;2023-07-13T03:39:14;99311.88;;;15.72;98.86
61757;BME280;57225;61.460;24.060;2023-07-13T03:41:59;99326.63;;;15.85;98.02
61757;BME280;57225;61.460;24.060;2023-07-13T03:44:43;99317.59;;;15.90;96.48
61757;BME280;57225;61.460;24.060;2023-07-13T03:47:34;99318.13;;;15.97;96.97
61757;BME280;57225;61.460;24.060;2023-07-13T03:50:19;99318.75;;;16.23;94.63
61757;BME280;57225;61.460;24.060;2023-07-13T03:53:22;99319.94;;;16.53;91.63
61757;BME280;57225;61.460;24.060;2023-07-13T03:56:07;99322.41;;;16.73;90.84
61757;BME280;57225;61.460;24.060;2023-07-13T03:58:51;99319.53;;;17.13;87.32
61757;BME280;57225;61.460;24.060;2023-07-13T04:01:35;99314.38;;;17.66;83.54
61757;BME280;57225;61.460;24.060;2023-07-13T04:04:20;99312.75;;;18.11;81.85
61757;BME280;57225;61.460;24.060;2023-07-13T04:07:05;99313.00;;;18.22;81.04
61757;BME280;57225;61.460;24.060;2023-07-13T04:09:54;99316.81;;;18.19;81.58
61757;BME280;57225;61.460;24.060;2023-07-13T04:12:39;99315.97;;;18.27;78.87
61757;BME280;57225;61.460;24.060;2023-07-13T04:15:23;99319.16;;;18.53;79.90
61757;BME280;57225;61.460;24.060;2023-07-13T04:18:08;99311.06;;;18.46;79.67
61757;BME280;57225;61.460;24.060;2023-07-13T04:20:53;99320.25;;;18.65;79.34
61757;BME280;57225;61.460;24.060;2023-07-13T04:23:38;99306.97;;;18.56;79.34
61757;BME280;57225;61.460;24.060;2023-07-13T04:26:22;99322.00;;;18.62;79.63
61757;BME280;57225;61.460;24.060;2023-07-13T04:29:07;99316.03;;;18.60;80.36
61757;BME280;57225;61.460;24.060;2023-07-13T04:31:52;99308.09;;;18.40;80.14
61757;BME280;57225;61.460;24.060;2023-07-13T04:34:36;99313.94;;;18.28;77.90
61757;BME280;57225;61.460;24.060;2023-07-13T04:37:23;99318.38;;;18.53;78.38
61757;BME280;57225;61.460;24.060;2023-07-13T04:40:10;99321.19;;;18.53;77.44
61757;BME280;57225;61.460;24.060;2023-07-13T04:42:56;99316.34;;;18.53;77.88
61757;BME280;57225;61.460;24.060;2023-07-13T04:45:41;99305.56;;;18.52;77.66
61757;BME280;57225;61.460;24.060;2023-07-13T04:48:25;99320.44;;;18.52;74.63
61757;BME280;57225;61.460;24.060;2023-07-13T04:51:10;99318.25;;;18.56;76.29
61757;BME280;57225;61.460;24.060;2023-07-13T04:53:55;99290.09;;;18.38;75.35
61757;BME280;57225;61.460;24.060;2023-07-13T04:56:40;99310.81;;;18.68;76.82
61757;BME280;57225;61.460;24.060;2023-07-13T04:59:24;99305.47;;;19.03;78.43
61757;BME280;57225;61.460;24.060;2023-07-13T05:02:08;99286.19;;;20.22;71.93
61757;BME280;57225;61.460;24.060;2023-07-13T05:04:53;99309.34;;;22.18;65.04
61757;BME280;57225;61.460;24.060;2023-07-13T05:07:37;99306.34;;;23.49;60.45
61757;BME280;57225;61.460;24.060;2023-07-13T05:10:22;99293.59;;;24.20;58.58
61757;BME280;57225;61.460;24.060;2023-07-13T05:13:07;99311.69;;;24.95;56.28
61757;BME280;57225;61.460;24.060;2023-07-13T05:16:00;99315.09;;;24.66;56.64
61757;BME280;57225;61.460;24.060;2023-07-13T05:18:45;99312.44;;;24.79;55.75
61757;BME280;57225;61.460;24.060;2023-07-13T05:21:29;99306.75;;;23.90;58.02
61757;BME280;57225;61.460;24.060;2023-07-13T05:24:14;99311.34;;;23.71;59.61
61757;BME280;57225;61.460;24.060;2023-07-13T05:26:58;99304.38;;;23.12;62.36
61757;BME280;57225;61.460;24.060;2023-07-13T05:29:46;99316.56;;;23.24;63.91
61757;BME280;57225;61.460;24.060;2023-07-13T05:32:30;99318.16;;;23.31;63.54
61757;BME280;57225;61.460;24.060;2023-07-13T05:35:15;99297.44;;;23.24;64.80
61757;BME280;57225;61.460;24.060;2023-07-13T05:38:00;99296.13;;;23.20;61.55
61757;BME280;57225;61.460;24.060;2023-07-13T05:40:48;99308.78;;;22.76;64.57
61757;BME280;57225;61.460;24.060;2023-07-13T05:43:33;99318.34;;;22.73;65.19
61757;BME280;57225;61.460;24.060;2023-07-13T05:46:17;99314.38;;;22.65;64.40
61757;BME280;57225;61.460;24.060;2023-07-13T05:49:02;99290.22;;;22.75;63.46
61757;BME280;57225;61.460;24.060;2023-07-13T05:51:47;99304.44;;;22.81;64.97
61757;BME280;57225;61.460;24.060;2023-07-13T05:54:31;99300.31;;;22.82;64.50
61757;BME280;57225;61.460;24.060;2023-07-13T05:57:16;99305.47;;;23.26;63.87
61757;BME280;57225;61.460;24.060;2023-07-13T06:00:00;99301.44;;;23.49;62.25
61757;BME280;57225;61.460;24.060;2023-07-13T06:02:45;99284.31;;;23.33;64.88
61757;BME280;57225;61.460;24.060;2023-07-13T06:05:29;99306.94;;;23.64;61.66
61757;BME280;57225;61.460;24.060;2023-07-13T06:08:14;99302.22;;;23.50;59.66
61757;BME280;57225;61.460;24.060;2023-07-13T06:11:07;99303.34;;;23.86;57.12
61757;BME280;57225;61.460;24.060;2023-07-13T06:13:52;99309.13;;;24.19;57.26
61757;BME280;57225;61.460;24.060;2023-07-13T06:16:36;99309.91;;;24.48;57.99
61757;BME280;57225;61.460;24.060;2023-07-13T06:19:21;99306.28;;;24.30;57.38
61757;BME280;57225;61.460;24.060;2023-07-13T06:22:05;99292.03;;;24.47;55.82
61757;BME280;57225;61.460;24.060;2023-07-13T06:28:03;99296.91;;;24.80;56.38
61757;BME280;57225;61.460;24.060;2023-07-13T06:30:47;99297.94;;;24.88;54.77
61757;BME280;57225;61.460;24.060;2023-07-13T06:33:32;99287.06;;;24.92;54.37
61757;BME280;57225;61.460;24.060;2023-07-13T06:36:17;99303.56;;;25.27;54.28
61757;BME280;57225;61.460;24.060;2023-07-13T06:39:02;99298.31;;;25.37;55.37
61757;BME280;57225;61.460;24.060;2023-07-13T06:41:47;99286.13;;;25.42;53.46
61757;BME280;57225;61.460;24.060;2023-07-13T06:44:32;99302.94;;;25.51;52.31
61757;BME280;57225;61.460;24.060;2023-07-13T06:47:16;99297.19;;;25.62;50.77
61757;BME280;57225;61.460;24.060;2023-07-13T06:50:01;99296.75;;;25.93;51.19
61757;BME280;57225;61.460;24.060;2023-07-13T06:52:45;99284.72;;;24.85;49.31
61757;BME280;57225;61.460;24.060;2023-07-13T06:55:30;99286.03;;;24.95;48.10
61757;BME280;57225;61.460;24.060;2023-07-13T06:58:16;99299.47;;;25.00;46.45
61757;BME280;57225;61.460;24.060;2023-07-13T07:01:01;99288.72;;;25.40;49.61
61757;BME280;57225;61.460;24.060;2023-07-13T07:03:45;99290.91;;;25.69;51.33
61757;BME280;57225;61.460;24.060;2023-07-13T07:06:31;99295.78;;;25.85;50.04
61757;BME280;57225;61.460;24.060;2023-07-13T07:09:15;99297.31;;;26.22;50.14
61757;BME280;57225;61.460;24.060;2023-07-13T07:12:00;99300.75;;;26.50;48.64
61757;BME280;57225;61.460;24.060;2023-07-13T07:14:45;99295.75;;;26.56;42.59
61757;BME280;57225;61.460;24.060;2023-07-13T07:17:29;99286.47;;;26.15;45.91
61757;BME280;57225;61.460;24.060;2023-07-13T07:20:14;99285.38;;;26.18;49.02
61757;BME280;57225;61.460;24.060;2023-07-13T07:22:59;99288.50;;;26.55;48.29
61757;BME280;57225;61.460;24.060;2023-07-13T07:25:44;99295.59;;;26.73;48.45
61757;BME280;57225;61.460;24.060;2023-07-13T07:28:30;99273.13;;;26.58;43.95
61757;BME280;57225;61.460;24.060;2023-07-13T07:31:15;99290.97;;;26.40;40.03
61757;BME280;57225;61.460;24.060;2023-07-13T07:33:59;99283.94;;;26.41;41.53
61757;BME280;57225;61.460;24.060;2023-07-13T07:36:44;99285.16;;;26.16;41.59
61757;BME280;57225;61.460;24.060;2023-07-13T07:39:28;99289.50;;;26.28;42.19
61757;BME280;57225;61.460;24.060;2023-07-13T07:42:13;99290.81;;;26.81;41.27
61757;BME280;57225;61.460;24.060;2023-07-13T07:44:57;99287.88;;;26.68;37.83
61757;BME280;57225;61.460;24.060;2023-07-13T07:47:42;99285.34;;;26.83;37.92
61757;BME280;57225;61.460;24.060;2023-07-13T07:50:28;99280.91;;;27.12;39.81
61757;BME280;57225;61.460;24.060;2023-07-13T07:53:38;99286.34;;;27.34;40.20
61757;BME280;57225;61.460;24.060;2023-07-13T07:56:22;99287.72;;;27.52;41.98
61757;BME280;57225;61.460;24.060;2023-07-13T07:59:07;99271.81;;;27.32;41.69
61757;BME280;57225;61.460;24.060;2023-07-13T08:01:51;99282.75;;;27.90;40.10
61757;BME280;57225;61.460;24.060;2023-07-13T08:04:36;99264.38;;;28.17;39.28
61757;BME280;57225;61.460;24.060;2023-07-13T08:07:20;99255.06;;;28.30;39.60
61757;BME280;57225;61.460;24.060;2023-07-13T08:10:08;99264.59;;;27.87;38.05
61757;BME280;57225;61.460;24.060;2023-07-13T08:12:53;99246.06;;;27.51;36.46
61757;BME280;57225;61.460;24.060;2023-07-13T08:15:37;99266.06;;;27.56;37.08
61757;BME280;57225;61.460;24.060;2023-07-13T08:18:22;99272.91;;;27.29;39.57
61757;BME280;57225;61.460;24.060;2023-07-13T08:21:07;99277.56;;;27.70;37.63
61757;BME280;57225;61.460;24.060;2023-07-13T08:23:52;99265.22;;;27.62;36.37
61757;BME280;57225;61.460;24.060;2023-07-13T08:26:36;99255.31;;;27.19;35.64
61757;BME280;57225;61.460;24.060;2023-07-13T08:29:21;99258.38;;;27.03;37.08
61757;BME280;57225;61.460;24.060;2023-07-13T08:32:07;99243.66;;;27.17;36.31
61757;BME280;57225;61.460;24.060;2023-07-13T08:34:55;99258.22;;;27.57;38.54
61757;BME280;57225;61.460;24.060;2023-07-13T08:37:39;99263.28;;;27.27;36.87
61757;BME280;57225;61.460;24.060;2023-07-13T08:40:25;99257.69;;;27.58;34.95
61757;BME280;57225;61.460;24.060;2023-07-13T08:43:20;99250.00;;;27.29;35.74
61757;BME280;57225;61.460;24.060;2023-07-13T08:46:20;99258.84;;;26.82;37.96
61757;BME280;57225;61.460;24.060;2023-07-13T08:49:14;99250.38;;;27.20;36.14
61757;BME280;57225;61.460;24.060;2023-07-13T08:52:17;99257.47;;;27.56;36.73
61757;BME280;57225;61.460;24.060;2023-07-13T08:55:18;99256.00;;;27.87;35.38
61757;BME280;57225;61.460;24.060;2023-07-13T08:58:15;99260.56;;;27.58;35.41
61757;BME280;57225;61.460;24.060;2023-07-13T09:01:22;99255.44;;;27.70;35.95
61757;BME280;57225;61.460;24.060;2023-07-13T09:04:22;99248.91;;;28.07;38.85
61757;BME280;57225;61.460;24.060;2023-07-13T09:07:31;99256.75;;;28.38;37.54
61757;BME280;57225;61.460;24.060;2023-07-13T09:10:23;99244.91;;;28.87;36.77
61757;BME280;57225;61.460;24.060;2023-07-13T09:13:18;99257.94;;;29.14;33.82
61757;BME280;57225;61.460;24.060;2023-07-13T09:16:05;99242.47;;;29.04;34.45
61757;BME280;57225;61.460;24.060;2023-07-13T09:18:52;99255.97;;;28.83;34.49
61757;BME280;57225;61.460;24.060;2023-07-13T09:21:41;99262.56;;;29.17;34.59
61757;BME280;57225;61.460;24.060;2023-07-13T09:24:49;99253.16;;;29.56;37.01
61757;BME280;57225;61.460;24.060;2023-07-13T09:27:57;99231.41;;;29.82;34.94
61757;BME280;57225;61.460;24.060;2023-07-13T09:31:07;99247.88;;;29.94;34.20
61757;BME280;57225;61.460;24.060;2023-07-13T09:33:56;99251.44;;;29.74;33.79
61757;BME280;57225;61.460;24.060;2023-07-13T09:36:42;99238.75;;;29.70;33.91
61757;BME280;57225;61.460;24.060;2023-07-13T09:39:36;99245.41;;;29.98;36.19
61757;BME280;57225;61.460;24.060;2023-07-13T09:42:22;99242.56;;;30.19;34.89
61757;BME280;57225;61.460;24.060;2023-07-13T09:45:07;99243.59;;;30.29;34.44
61757;BME280;57225;61.460;24.060;2023-07-13T09:47:59;99254.13;;;30.27;35.11
61757;BME280;57225;61.460;24.060;2023-07-13T09:50:44;99253.41;;;30.75;32.14
61757;BME280;57225;61.460;24.060;2023-07-13T09:53:30;99249.03;;;30.82;33.17
61757;BME280;57225;61.460;24.060;2023-07-13T09:56:23;99258.91;;;30.66;32.32
61757;BME280;57225;61.460;24.060;2023-07-13T09:59:19;99252.91;;;30.85;32.88
61757;BME280;57225;61.460;24.060;2023-07-13T10:02:26;99257.31;;;31.14;32.79
61757;BME280;57225;61.460;24.060;2023-07-13T10:05:14;99247.16;;;30.92;33.86
61757;BME280;57225;61.460;24.060;2023-07-13T10:08:00;99227.88;;;30.30;32.89
61757;BME280;57225;61.460;24.060;2023-07-13T10:10:46;99239.66;;;30.61;32.45
61757;BME280;57225;61.460;24.060;2023-07-13T10:13:35;99238.09;;;31.09;33.26
61757;BME280;57225;61.460;24.060;2023-07-13T10:16:25;99235.91;;;31.02;34.29
61757;BME280;57225;61.460;24.060;2023-07-13T10:19:15;99231.59;;;30.88;31.91
61757;BME280;57225;61.460;24.060;2023-07-13T10:22:36;99227.84;;;30.02;31.65
61757;BME280;57225;61.460;24.060;2023-07-13T10:25:29;99245.00;;;30.15;31.65
61757;BME280;57225;61.460;24.060;2023-07-13T10:28:36;99235.41;;;30.83;33.76
61757;BME280;57225;61.460;24.060;2023-07-13T10:31:22;99230.53;;;31.34;32.71
61757;BME280;57225;61.460;24.060;2023-07-13T10:34:11;99239.72;;;31.25;32.04
61757;BME280;57225;61.460;24.060;2023-07-13T10:36:56;99231.03;;;31.17;32.01
61757;BME280;57225;61.460;24.060;2023-07-13T10:39:40;99224.19;;;31.00;32.05
61757;BME280;57225;61.460;24.060;2023-07-13T10:42:45;99241.81;;;31.61;32.66
61757;BME280;57225;61.460;24.060;2023-07-13T10:45:34;99234.00;;;31.84;31.87
61757;BME280;57225;61.460;24.060;2023-07-13T10:48:21;99236.34;;;32.08;31.09
61757;BME280;57225;61.460;24.060;2023-07-13T10:51:07;99237.50;;;31.46;31.20
61757;BME280;57225;61.460;24.060;2023-07-13T10:54:31;99235.56;;;31.85;29.13
61757;BME280;57225;61.460;24.060;2023-07-13T10:57:19;99245.44;;;32.20;31.36
61757;BME280;57225;61.460;24.060;2023-07-13T11:00:16;99241.47;;;31.72;31.14
61757;BME280;57225;61.460;24.060;2023-07-13T11:03:03;99228.19;;;31.25;28.39
61757;BME280;57225;61.460;24.060;2023-07-13T11:05:49;99229.69;;;31.19;28.93
61757;BME280;57225;61.460;24.060;2023-07-13T11:11:34;99234.16;;;31.71;31.23
61757;BME280;57225;61.460;24.060;2023-07-13T11:17:37;99237.44;;;31.67;29.16
61757;BME280;57225;61.460;24.060;2023-07-13T11:20:30;99227.97;;;31.15;29.48
61757;BME280;57225;61.460;24.060;2023-07-13T11:26:00;99223.78;;;31.68;30.28
61757;BME280;57225;61.460;24.060;2023-07-13T11:28:49;99225.91;;;31.75;30.59
61757;BME280;57225;61.460;24.060;2023-07-13T11:31:34;99222.56;;;32.14;31.45
61757;BME280;57225;61.460;24.060;2023-07-13T11:34:33;99225.06;;;32.25;31.61
61757;BME280;57225;61.460;24.060;2023-07-13T11:37:19;99230.78;;;31.08;31.02
61757;BME280;57225;61.460;24.060;2023-07-13T11:40:05;99226.03;;;31.54;30.84
61757;BME280;57225;61.460;24.060;2023-07-13T11:42:51;99228.50;;;32.31;28.90
61757;BME280;57225;61.460;24.060;2023-07-13T11:45:35;99232.94;;;32.40;28.94
61757;BME280;57225;61.460;24.060;2023-07-13T11:48:28;99235.66;;;32.30;31.05
61757;BME280;57225;61.460;24.060;2023-07-13T11:51:25;99230.44;;;32.82;30.66
61757;BME280;57225;61.460;24.060;2023-07-13T11:54:27;99228.09;;;33.19;28.69
61757;BME280;57225;61.460;24.060;2023-07-13T12:00:14;99240.81;;;33.00;28.57
61757;BME280;57225;61.460;24.060;2023-07-13T12:03:01;99232.56;;;32.51;28.08
61757;BME280;57225;61.460;24.060;2023-07-13T12:05:57;99228.88;;;32.05;29.36
61757;BME280;57225;61.460;24.060;2023-07-13T12:08:41;99224.41;;;31.89;31.27
61757;BME280;57225;61.460;24.060;2023-07-13T12:11:27;99223.75;;;31.60;30.37
61757;BME280;57225;61.460;24.060;2023-07-13T12:14:16;99225.03;;;32.10;30.97
61757;BME280;57225;61.460;24.060;2023-07-13T12:17:00;99217.25;;;31.75;30.12
61757;BME280;57225;61.460;24.060;2023-07-13T12:19:45;99222.22;;;31.15;29.59
61757;BME280;57225;61.460;24.060;2023-07-13T12:22:30;99215.91;;;31.25;31.23
61757;BME280;57225;61.460;24.060;2023-07-13T12:25:15;99206.97;;;31.51;31.30
61757;BME280;57225;61.460;24.060;2023-07-13T12:28:23;99213.00;;;31.17;31.26
61757;BME280;57225;61.460;24.060;2023-07-13T12:34:23;99206.31;;;31.22;28.54
61757;BME280;57225;61.460;24.060;2023-07-13T12:37:12;99207.09;;;31.30;31.08
61757;BME280;57225;61.460;24.060;2023-07-13T12:39:58;99203.25;;;30.99;31.91
61757;BME280;57225;61.460;24.060;2023-07-13T12:42:43;99205.09;;;30.32;33.36
61757;BME280;57225;61.460;24.060;2023-07-13T12:45:28;99198.56;;;30.32;34.53
61757;BME280;57225;61.460;24.060;2023-07-13T12:48:16;99202.13;;;30.66;33.17
61757;BME280;57225;61.460;24.060;2023-07-13T12:51:01;99214.44;;;30.25;33.64
61757;BME280;57225;61.460;24.060;2023-07-13T12:53:56;99206.50;;;29.97;33.53
61757;BME280;57225;61.460;24.060;2023-07-13T12:56:40;99210.34;;;29.32;34.77
61757;BME280;57225;61.460;24.060;2023-07-13T12:59:29;99212.47;;;28.21;36.21
61757;BME280;57225;61.460;24.060;2023-07-13T13:05:12;99200.09;;;28.13;38.06
61757;BME280;57225;61.460;24.060;2023-07-13T13:07:58;99200.41;;;28.67;35.68
61757;BME280;57225;61.460;24.060;2023-07-13T13:10:42;99197.34;;;29.65;36.64
61757;BME280;57225;61.460;24.060;2023-07-13T13:13:27;99198.19;;;29.73;33.35
61757;BME280;57225;61.460;24.060;2023-07-13T13:16:33;99203.09;;;29.65;35.69
61757;BME280;57225;61.460;24.060;2023-07-13T13:19:25;99184.44;;;29.58;33.67
61757;BME280;57225;61.460;24.060;2023-07-13T13:22:10;99199.41;;;29.31;34.64
61757;BME280;57225;61.460;24.060;2023-07-13T13:24:57;99199.34;;;28.84;35.00
61757;BME280;57225;61.460;24.060;2023-07-13T13:28:00;99180.50;;;28.17;35.98
61757;BME280;57225;61.460;24.060;2023-07-13T13:30:46;99182.72;;;28.24;36.78
61757;BME280;57225;61.460;24.060;2023-07-13T13:33:31;99189.09;;;28.88;37.56
61757;BME280;57225;61.460;24.060;2023-07-13T13:36:18;99181.63;;;29.32;34.90
61757;BME280;57225;61.460;24.060;2023-07-13T13:39:24;99188.09;;;29.59;35.22
61757;BME280;57225;61.460;24.060;2023-07-13T13:42:09;99187.03;;;29.36;32.82
61757;BME280;57225;61.460;24.060;2023-07-13T13:44:54;99191.22;;;29.22;34.33
61757;BME280;57225;61.460;24.060;2023-07-13T13:47:41;99182.56;;;29.14;34.80
61757;BME280;57225;61.460;24.060;2023-07-13T13:50:25;99176.78;;;29.61;35.34
61757;BME280;57225;61.460;24.060;2023-07-13T13:53:28;99175.97;;;29.74;35.60
61757;BME280;57225;61.460;24.060;2023-07-13T13:56:13;99177.97;;;29.32;34.90
61757;BME280;57225;61.460;24.060;2023-07-13T13:58:58;99153.28;;;29.02;34.07
61757;BME280;57225;61.460;24.060;2023-07-13T14:01:45;99181.22;;;28.62;36.27
61757;BME280;57225;61.460;24.060;2023-07-13T14:04:32;99138.22;;;27.91;36.28
61757;BME280;57225;61.460;24.060;2023-07-13T14:07:17;99156.22;;;27.73;37.62
61757;BME280;57225;61.460;24.060;2023-07-13T14:10:01;99169.56;;;27.33;35.88
61757;BME280;57225;61.460;24.060;2023-07-13T14:12:50;99168.94;;;27.58;37.54
61757;BME280;57225;61.460;24.060;2023-07-13T14:15:35;99172.09;;;27.74;35.95
61757;BME280;57225;61.460;24.060;2023-07-13T14:18:20;99153.16;;;27.14;34.05
61757;BME280;57225;61.460;24.060;2023-07-13T14:21:11;99164.31;;;27.18;36.42
61757;BME280;57225;61.460;24.060;2023-07-13T14:23:56;99166.84;;;27.03;37.00
61757;BME280;57225;61.460;24.060;2023-07-13T14:26:41;99163.00;;;26.76;36.97
61757;BME280;57225;61.460;24.060;2023-07-13T14:29:27;99169.38;;;26.63;37.52
61757;BME280;57225;61.460;24.060;2023-07-13T14:32:12;99171.00;;;26.05;35.91
61757;BME280;57225;61.460;24.060;2023-07-13T14:34:57;99177.38;;;25.86;42.51
61757;BME280;57225;61.460;24.060;2023-07-13T14:37:42;99188.28;;;25.47;42.07
61757;BME280;57225;61.460;24.060;2023-07-13T14:40:29;99171.22;;;25.36;42.00
61757;BME280;57225;61.460;24.060;2023-07-13T14:43:16;99157.84;;;25.19;41.35
61757;BME280;57225;61.460;24.060;2023-07-13T14:46:00;99182.84;;;25.02;43.95
61757;BME280;57225;61.460;24.060;2023-07-13T14:48:46;99188.03;;;24.98;45.72
61757;BME280;57225;61.460;24.060;2023-07-13T14:51:31;99189.34;;;24.92;48.03
61757;BME280;57225;61.460;24.060;2023-07-13T14:54:17;99181.19;;;24.43;47.39